createdAt,value
2018-12-07T00:01:51.998Z,3.20
2018-12-07T00:04:23.967Z,3.20
2018-12-07T00:06:56.043Z,3.20
2018-12-07T00:09:27.341Z,3.20
2018-12-07T00:11:59.592Z,3.20
2018-12-07T00:14:33.286Z,3.20
2018-12-07T00:17:03.430Z,3.20
2018-12-07T00:19:35.617Z,3.30
2018-12-07T00:22:15.520Z,3.30
2018-12-07T00:24:44.680Z,3.30
2018-12-07T00:27:13.616Z,3.30
2018-12-07T00:29:44.010Z,3.30
2018-12-07T00:32:15.511Z,3.30
2018-12-07T00:34:46.682Z,3.30
2018-12-07T00:37:16.549Z,3.40
2018-12-07T00:39:46.682Z,3.40
2018-12-07T00:42:23.355Z,3.40
2018-12-07T00:44:53.798Z,3.40
2018-12-07T00:47:24.929Z,3.40
2018-12-07T00:49:54.610Z,3.40
2018-12-07T00:52:25.191Z,3.40
2018-12-07T00:54:56.643Z,3.40
2018-12-07T00:57:28.364Z,3.40
2018-12-07T00:59:59.039Z,3.40
2018-12-07T01:02:33.442Z,3.50
2018-12-07T01:05:07.272Z,3.50
2018-12-07T01:07:47.495Z,3.50
2018-12-07T01:12:54.763Z,3.50
2018-12-07T01:15:24.379Z,3.50
2018-12-07T01:17:55.264Z,3.60
2018-12-07T01:20:28.991Z,3.50
2018-12-07T01:23:06.126Z,3.50
2018-12-07T01:25:35.460Z,3.50
2018-12-07T01:28:06.976Z,3.50
2018-12-07T01:30:37.562Z,3.40
2018-12-07T01:33:08.094Z,3.40
2018-12-07T01:35:40.339Z,3.50
2018-12-07T01:38:11.322Z,3.50
2018-12-07T01:40:42.562Z,3.50
2018-12-07T01:43:14.146Z,3.50
2018-12-07T01:45:46.654Z,3.50
2018-12-07T01:48:17.574Z,3.40
2018-12-07T01:50:54.457Z,3.40
2018-12-07T01:53:26.535Z,3.40
2018-12-07T01:55:58.495Z,3.40
2018-12-07T01:58:33.528Z,3.40
2018-12-07T02:01:06.400Z,3.40
2018-12-07T02:03:37.266Z,3.40
2018-12-07T02:06:09.035Z,3.30
2018-12-07T02:08:39.744Z,3.40
2018-12-07T02:11:10.851Z,3.30
2018-12-07T02:13:42.446Z,3.30
2018-12-07T02:16:13.573Z,3.30
2018-12-07T02:18:46.933Z,3.30
2018-12-07T02:21:17.568Z,3.30
2018-12-07T02:23:47.723Z,3.30
2018-12-07T02:26:18.478Z,3.30
2018-12-07T02:28:49.926Z,3.30
2018-12-07T02:34:14.562Z,3.20
2018-12-07T02:36:46.083Z,3.20
2018-12-07T02:39:17.121Z,3.20
2018-12-07T02:41:50.368Z,3.20
2018-12-07T02:44:22.658Z,3.20
2018-12-07T02:46:52.812Z,3.20
2018-12-07T02:49:25.207Z,3.10
2018-12-07T02:51:56.492Z,3.10
2018-12-07T02:54:38.454Z,3.10
2018-12-07T02:57:09.383Z,3.00
2018-12-07T02:59:40.618Z,3.00
2018-12-07T03:02:11.887Z,2.90
2018-12-07T03:04:42.456Z,2.90
2018-12-07T03:07:13.459Z,2.90
2018-12-07T03:09:44.428Z,2.80
2018-12-07T03:12:17.245Z,2.80
2018-12-07T03:14:49.734Z,2.80
2018-12-07T03:17:22.305Z,2.80
2018-12-07T03:19:53.439Z,2.80
2018-12-07T03:22:25.918Z,2.70
2018-12-07T03:24:57.123Z,2.70
2018-12-07T03:27:28.513Z,2.60
2018-12-07T03:29:58.599Z,2.60
2018-12-07T03:32:28.700Z,2.60
2018-12-07T03:35:02.410Z,2.50
2018-12-07T03:37:33.631Z,2.50
2018-12-07T03:40:04.564Z,2.50
2018-12-07T03:42:34.979Z,2.50
2018-12-07T03:45:06.002Z,2.50
2018-12-07T03:47:36.926Z,2.50
2018-12-07T03:50:07.411Z,2.40
2018-12-07T03:52:39.158Z,2.40
2018-12-07T03:55:12.507Z,2.40
2018-12-07T03:57:44.387Z,2.40
2018-12-07T04:00:16.171Z,2.40
2018-12-07T04:02:47.902Z,2.40
2018-12-07T04:05:18.878Z,2.40
2018-12-07T04:07:50.107Z,2.30
2018-12-07T04:10:21.574Z,2.30
2018-12-07T04:12:53.076Z,2.30
2018-12-07T04:15:29.199Z,2.30
2018-12-07T04:18:01.253Z,2.30
2018-12-07T04:20:32.067Z,2.30
2018-12-07T04:23:03.110Z,2.30
2018-12-07T04:25:33.899Z,2.40
2018-12-07T04:28:04.767Z,2.30
2018-12-07T04:30:36.163Z,2.30
2018-12-07T04:33:08.209Z,2.40
2018-12-07T04:35:39.828Z,2.30
2018-12-07T04:38:11.284Z,2.30
2018-12-07T04:40:41.796Z,2.30
2018-12-07T04:43:13.587Z,2.30
2018-12-07T04:45:43.491Z,2.30
2018-12-07T04:48:13.889Z,2.30
2018-12-07T04:50:43.381Z,2.30
2018-12-07T04:53:14.299Z,2.20
2018-12-07T04:55:45.157Z,2.20
2018-12-07T04:58:15.894Z,2.20
2018-12-07T05:00:47.963Z,2.20
2018-12-07T05:03:18.755Z,2.20
2018-12-07T05:05:48.877Z,2.20
2018-12-07T05:08:20.032Z,2.20
2018-12-07T05:10:50.430Z,2.30
2018-12-07T05:13:20.942Z,2.30
2018-12-07T05:15:59.456Z,2.30
2018-12-07T05:18:30.110Z,2.30
2018-12-07T05:21:01.887Z,2.30
2018-12-07T05:23:32.865Z,2.30
2018-12-07T05:26:03.359Z,2.30
2018-12-07T05:28:33.619Z,2.30
2018-12-07T05:31:03.542Z,2.30
2018-12-07T05:33:33.358Z,2.40
2018-12-07T05:39:16.169Z,2.40
2018-12-07T05:41:46.535Z,2.40
2018-12-07T05:44:16.613Z,2.40
2018-12-07T05:46:47.949Z,2.40
2018-12-07T05:49:18.436Z,2.40
2018-12-07T05:51:49.934Z,2.50
2018-12-07T05:54:28.455Z,2.50
2018-12-07T05:56:58.858Z,2.50
2018-12-07T05:59:29.020Z,2.50
2018-12-07T06:01:59.981Z,2.50
2018-12-07T06:04:31.908Z,2.50
2018-12-07T06:07:04.102Z,2.60
2018-12-07T06:09:35.807Z,2.60
2018-12-07T06:12:05.107Z,2.60
2018-12-07T06:14:38.082Z,2.60
2018-12-07T06:17:09.095Z,2.60
2018-12-07T06:19:40.354Z,2.60
2018-12-07T06:22:11.949Z,2.60
2018-12-07T06:24:42.402Z,2.60
2018-12-07T06:27:13.602Z,2.70
2018-12-07T06:29:45.099Z,2.70
2018-12-07T06:32:15.558Z,2.70
2018-12-07T06:34:54.941Z,2.70
2018-12-07T06:37:27.188Z,2.70
2018-12-07T06:39:57.707Z,2.70
2018-12-07T06:42:29.878Z,2.80
2018-12-07T06:45:00.716Z,2.70
2018-12-07T06:47:32.883Z,2.70
2018-12-07T06:50:02.815Z,2.70
2018-12-07T06:52:34.528Z,2.70
2018-12-07T06:55:06.565Z,2.70
2018-12-07T06:57:38.112Z,2.70
2018-12-07T07:00:08.076Z,2.80
2018-12-07T07:02:37.336Z,2.80
2018-12-07T07:05:10.662Z,2.80
2018-12-07T07:07:42.712Z,2.90
2018-12-07T07:10:14.978Z,2.90
2018-12-07T07:12:44.214Z,3.00
2018-12-07T07:15:23.239Z,2.90
2018-12-07T07:17:54.889Z,2.90
2018-12-07T07:20:26.172Z,2.90
2018-12-07T07:22:57.630Z,2.90
2018-12-07T07:25:29.153Z,2.90
2018-12-07T07:27:59.974Z,2.80
2018-12-07T07:30:30.307Z,2.80
2018-12-07T07:33:01.819Z,2.80
2018-12-07T07:35:34.625Z,2.80
2018-12-07T07:38:05.323Z,2.80
2018-12-07T07:40:37.002Z,2.80
2018-12-07T07:43:07.839Z,2.80
2018-12-07T07:45:39.550Z,2.80
2018-12-07T07:48:09.207Z,2.90
2018-12-07T07:50:40.774Z,2.90
2018-12-07T07:53:11.858Z,2.90
2018-12-07T07:55:43.986Z,2.90
2018-12-07T07:58:15.835Z,2.90
2018-12-07T08:00:50.339Z,2.90
2018-12-07T08:03:19.865Z,2.90
2018-12-07T08:05:49.821Z,3.00
2018-12-07T08:08:21.701Z,3.00
2018-12-07T08:10:52.327Z,3.00
2018-12-07T08:13:23.051Z,3.10
2018-12-07T08:15:53.724Z,3.10
2018-12-07T08:18:25.114Z,3.20
2018-12-07T08:20:56.476Z,3.20
2018-12-07T08:23:28.521Z,3.20
2018-12-07T08:26:03.019Z,3.30
2018-12-07T08:28:33.626Z,3.30
2018-12-07T08:31:05.022Z,3.30
2018-12-07T08:33:35.242Z,3.30
2018-12-07T08:36:06.524Z,3.20
2018-12-07T08:38:37.940Z,3.20
2018-12-07T08:41:07.858Z,3.30
2018-12-07T08:43:38.072Z,3.30
2018-12-07T08:46:09.031Z,3.30
2018-12-07T08:48:41.062Z,3.30
2018-12-07T08:51:13.155Z,3.30
2018-12-07T08:53:44.489Z,3.40
2018-12-07T08:56:16.286Z,3.40
2018-12-07T08:58:47.904Z,3.50
2018-12-07T09:01:19.926Z,3.50
2018-12-07T09:03:50.499Z,3.60
2018-12-07T09:06:21.642Z,3.60
2018-12-07T09:08:53.724Z,3.60
2018-12-07T09:11:25.188Z,3.60
2018-12-07T09:13:56.318Z,3.70
2018-12-07T09:16:28.478Z,3.70
2018-12-07T09:18:59.839Z,3.70
2018-12-07T09:21:30.096Z,3.70
2018-12-07T09:24:02.022Z,3.80
2018-12-07T09:26:33.118Z,3.80
2018-12-07T09:29:05.327Z,3.80
2018-12-07T09:31:35.941Z,3.80
2018-12-07T09:34:06.727Z,3.90
2018-12-07T09:36:50.856Z,3.90
2018-12-07T09:39:20.691Z,3.90
2018-12-07T09:41:50.294Z,3.90
2018-12-07T09:44:19.847Z,3.90
2018-12-07T09:46:50.000Z,3.90
2018-12-07T09:49:20.959Z,3.90
2018-12-07T09:51:51.943Z,4.00
2018-12-07T09:54:21.501Z,4.00
2018-12-07T09:56:51.677Z,4.00
2018-12-07T09:59:21.819Z,4.00
2018-12-07T10:01:53.768Z,4.00
2018-12-07T10:04:24.052Z,4.00
2018-12-07T10:06:56.523Z,4.00
2018-12-07T10:09:27.727Z,4.10
2018-12-07T10:11:58.214Z,4.10
2018-12-07T10:14:28.003Z,4.10
2018-12-07T10:17:06.587Z,4.20
2018-12-07T10:19:38.626Z,4.20
2018-12-07T10:22:10.706Z,4.30
2018-12-07T10:24:42.356Z,4.30
2018-12-07T10:27:12.462Z,4.40
2018-12-07T10:29:42.449Z,4.40
2018-12-07T10:32:11.723Z,4.40
2018-12-07T10:34:43.363Z,4.40
2018-12-07T10:37:14.815Z,4.40
2018-12-07T10:39:47.003Z,4.40
2018-12-07T10:42:19.391Z,4.40
2018-12-07T10:44:49.639Z,4.30
2018-12-07T10:47:20.659Z,4.40
2018-12-07T10:49:52.863Z,4.40
2018-12-07T10:52:23.322Z,4.40
2018-12-07T10:54:55.607Z,4.40
2018-12-07T10:57:26.695Z,4.50
2018-12-07T10:59:57.939Z,4.40
2018-12-07T11:02:33.085Z,4.40
2018-12-07T11:05:09.759Z,4.40
2018-12-07T11:07:45.478Z,4.50
2018-12-07T11:10:21.749Z,4.50
2018-12-07T11:12:56.122Z,4.50
2018-12-07T11:15:31.425Z,4.50
2018-12-07T11:18:19.816Z,4.50
2018-12-07T11:20:56.002Z,4.50
2018-12-07T11:23:31.278Z,4.50
2018-12-07T11:26:06.946Z,4.60
2018-12-07T11:28:41.508Z,4.60
2018-12-07T11:31:17.635Z,4.70
2018-12-07T11:34:06.726Z,4.50
2018-12-07T11:36:38.406Z,4.40
2018-12-07T11:39:12.666Z,4.40
2018-12-07T11:41:44.344Z,4.40
2018-12-07T11:44:17.118Z,4.40
2018-12-07T11:46:48.803Z,4.30
2018-12-07T11:49:20.596Z,4.30
2018-12-07T11:51:52.136Z,4.30
2018-12-07T11:54:23.588Z,4.20
2018-12-07T11:56:53.875Z,4.10
2018-12-07T11:59:24.750Z,4.10
2018-12-07T12:01:55.938Z,4.10
2018-12-07T12:04:27.399Z,4.00
2018-12-07T12:06:59.716Z,4.00
2018-12-07T12:09:30.592Z,4.00
2018-12-07T12:12:01.513Z,4.00
2018-12-07T12:14:32.648Z,4.00
2018-12-07T12:17:02.946Z,4.00
2018-12-07T12:19:33.816Z,4.00
2018-12-07T12:22:05.353Z,4.00
2018-12-07T12:24:36.406Z,3.90
2018-12-07T12:27:07.688Z,3.90
2018-12-07T12:29:38.442Z,3.90
2018-12-07T12:32:10.307Z,3.90
2018-12-07T12:34:42.242Z,3.90
2018-12-07T12:37:12.410Z,3.90
2018-12-07T12:39:42.285Z,4.00
2018-12-07T12:42:13.321Z,4.00
2018-12-07T12:44:44.584Z,4.00
2018-12-07T12:47:15.000Z,4.10
2018-12-07T12:49:44.361Z,4.00
2018-12-07T12:52:15.666Z,4.00
2018-12-07T12:54:47.126Z,4.00
2018-12-07T12:57:17.049Z,4.00
2018-12-07T12:59:47.734Z,4.00
2018-12-07T13:02:19.216Z,4.00
2018-12-07T13:04:50.632Z,4.00
2018-12-07T13:07:21.036Z,4.10
2018-12-07T13:09:51.659Z,4.10
2018-12-07T13:12:22.032Z,4.10
2018-12-07T13:14:52.607Z,4.10
2018-12-07T13:17:23.974Z,4.10
2018-12-07T13:20:10.939Z,4.00
2018-12-07T13:22:42.435Z,4.10
2018-12-07T13:25:13.353Z,4.10
2018-12-07T13:27:44.480Z,4.10
2018-12-07T13:30:15.172Z,4.10
2018-12-07T13:32:47.030Z,4.10
2018-12-07T13:35:16.812Z,4.10
2018-12-07T13:37:46.383Z,4.10
2018-12-07T13:40:21.143Z,4.10
2018-12-07T13:42:52.552Z,4.10
2018-12-07T13:45:22.751Z,4.10
2018-12-07T13:47:52.552Z,4.10
2018-12-07T13:50:28.565Z,4.00
2018-12-07T13:53:00.147Z,4.00
2018-12-07T13:55:32.238Z,4.00
2018-12-07T13:58:03.049Z,4.00
2018-12-07T14:00:39.413Z,3.90
2018-12-07T14:03:10.972Z,3.90
2018-12-07T14:05:42.445Z,3.90
2018-12-07T14:08:14.276Z,4.00
2018-12-07T14:10:45.492Z,4.00
2018-12-07T14:13:17.228Z,3.90
2018-12-07T14:15:49.707Z,3.90
2018-12-07T14:18:20.761Z,3.90
2018-12-07T14:20:54.211Z,3.90
2018-12-07T14:23:24.621Z,3.90
2018-12-07T14:25:54.680Z,3.80
2018-12-07T14:28:25.995Z,3.80
2018-12-07T14:30:56.110Z,3.80
2018-12-07T14:33:26.212Z,3.80
2018-12-07T14:35:58.638Z,3.80
2018-12-07T14:38:29.208Z,3.90
2018-12-07T14:41:00.335Z,3.90
2018-12-07T14:43:30.915Z,3.90
2018-12-07T14:46:02.842Z,3.80
2018-12-07T14:48:38.401Z,3.80
2018-12-07T14:51:08.330Z,3.80
2018-12-07T14:53:39.364Z,3.70
2018-12-07T14:56:10.809Z,3.70
2018-12-07T14:58:45.049Z,3.70
2018-12-07T15:01:16.299Z,3.70
2018-12-07T15:03:47.591Z,3.70
2018-12-07T15:06:20.350Z,3.70
2018-12-07T15:08:55.430Z,3.70
2018-12-07T15:11:26.594Z,3.70
2018-12-07T15:13:58.472Z,3.70
2018-12-07T15:16:28.170Z,3.70
2018-12-07T15:18:59.078Z,3.70
2018-12-07T15:21:34.378Z,3.70
2018-12-07T15:24:04.270Z,3.70
2018-12-07T15:26:34.297Z,3.70
2018-12-07T15:29:07.133Z,3.70
2018-12-07T15:31:43.479Z,3.60
2018-12-07T15:34:15.034Z,3.60
2018-12-07T15:36:45.497Z,3.60
2018-12-07T15:39:26.729Z,3.50
2018-12-07T15:41:57.147Z,3.50
2018-12-07T15:44:35.742Z,3.40
2018-12-07T15:47:05.405Z,3.40
2018-12-07T15:49:51.694Z,3.30
2018-12-07T15:52:21.466Z,3.30
2018-12-07T15:54:53.583Z,3.30
2018-12-07T15:57:23.735Z,3.40
2018-12-07T15:59:53.626Z,3.40
2018-12-07T16:02:23.860Z,3.40
2018-12-07T16:04:53.939Z,3.40
2018-12-07T16:07:23.455Z,3.40
2018-12-07T16:09:53.559Z,3.40
2018-12-07T16:12:23.427Z,3.40
2018-12-07T16:14:53.392Z,3.40
2018-12-07T16:17:24.055Z,3.30
2018-12-07T16:19:55.102Z,3.40
2018-12-07T16:22:28.308Z,3.40
2018-12-07T16:24:59.537Z,3.40
2018-12-07T16:27:30.439Z,3.40
2018-12-07T16:30:02.551Z,3.40
2018-12-07T16:32:33.434Z,3.30
2018-12-07T16:35:04.145Z,3.30
2018-12-07T16:37:34.778Z,3.30
2018-12-07T16:40:06.208Z,3.30
2018-12-07T16:42:37.641Z,3.30
2018-12-07T16:45:08.401Z,3.30
2018-12-07T16:47:38.684Z,3.40
2018-12-07T16:50:14.286Z,3.40
2018-12-07T16:52:45.316Z,3.40
2018-12-07T16:55:15.692Z,3.40
2018-12-07T16:57:45.261Z,3.50
2018-12-07T17:00:16.171Z,3.40
2018-12-07T17:02:47.902Z,3.40
2018-12-07T17:05:19.436Z,3.50
2018-12-07T17:07:50.278Z,3.40
2018-12-07T17:10:22.736Z,3.40
2018-12-07T17:13:00.722Z,3.40
2018-12-07T17:15:31.030Z,3.40
2018-12-07T17:18:02.882Z,3.40
2018-12-07T17:20:34.218Z,3.40
2018-12-07T17:23:06.579Z,3.40
2018-12-07T17:25:38.138Z,3.30
2018-12-07T17:28:09.515Z,3.40
2018-12-07T17:30:40.862Z,3.40
2018-12-07T17:33:12.171Z,3.40
2018-12-07T17:35:42.963Z,3.40
2018-12-07T17:38:13.488Z,3.40
2018-12-07T17:40:43.276Z,3.40
2018-12-07T17:43:14.160Z,3.40
2018-12-07T17:45:45.498Z,3.30
2018-12-07T17:48:16.939Z,3.30
2018-12-07T17:50:48.331Z,3.20
2018-12-07T17:53:19.379Z,3.20
2018-12-07T17:55:50.854Z,3.20
2018-12-07T17:58:20.173Z,3.20
2018-12-07T18:00:50.616Z,3.30
2018-12-07T18:03:22.074Z,3.30
2018-12-07T18:05:57.570Z,3.30
2018-12-07T18:08:29.568Z,3.30
2018-12-07T18:11:00.888Z,3.40
2018-12-07T18:13:48.081Z,3.40
2018-12-07T18:16:19.947Z,3.60
2018-12-07T18:18:50.588Z,3.60
2018-12-07T18:21:21.796Z,3.50
2018-12-07T18:23:53.340Z,3.40
2018-12-07T18:26:25.420Z,3.40
2018-12-07T18:28:57.028Z,3.40
2018-12-07T18:31:28.193Z,3.40
2018-12-07T18:33:59.997Z,3.40
2018-12-07T18:36:30.594Z,3.40
2018-12-07T18:39:02.793Z,3.40
2018-12-07T18:41:34.299Z,3.40
2018-12-07T18:44:04.998Z,3.40
2018-12-07T18:46:35.876Z,3.40
2018-12-07T18:49:06.070Z,3.30
2018-12-07T18:51:36.919Z,3.40
2018-12-07T18:54:10.320Z,3.40
2018-12-07T18:56:42.196Z,3.40
2018-12-07T18:59:13.010Z,3.40
2018-12-07T19:01:43.209Z,3.40
2018-12-07T19:04:14.113Z,3.40
2018-12-07T19:06:44.848Z,3.40
2018-12-07T19:09:16.735Z,3.40
2018-12-07T19:11:46.645Z,3.30
2018-12-07T19:14:19.289Z,3.30
2018-12-07T19:16:48.666Z,3.30
2018-12-07T19:19:18.024Z,3.40
2018-12-07T19:21:49.694Z,3.40
2018-12-07T19:24:21.055Z,3.40
2018-12-07T19:26:52.353Z,3.40
2018-12-07T19:29:23.024Z,3.40
2018-12-07T19:31:53.336Z,3.30
2018-12-07T19:34:23.880Z,3.30
2018-12-07T19:36:59.243Z,3.30
2018-12-07T19:39:30.897Z,3.30
2018-12-07T19:42:02.083Z,3.20
2018-12-07T19:44:33.897Z,3.20
2018-12-07T19:47:05.213Z,3.20
2018-12-07T19:49:38.580Z,3.10
2018-12-07T19:52:09.117Z,3.00
2018-12-07T19:54:40.336Z,3.00
2018-12-07T19:57:14.889Z,3.00
2018-12-07T19:59:45.660Z,3.00
2018-12-07T20:02:17.611Z,3.10
2018-12-07T20:04:49.243Z,3.10
2018-12-07T20:07:20.043Z,3.10
2018-12-07T20:09:52.482Z,3.20
2018-12-07T20:12:23.612Z,3.20
2018-12-07T20:14:53.079Z,3.30
2018-12-07T20:17:23.057Z,3.20
2018-12-07T20:19:52.873Z,3.20
2018-12-07T20:22:24.038Z,3.20
2018-12-07T20:24:54.377Z,3.20
2018-12-07T20:27:25.850Z,3.20
2018-12-07T20:29:57.278Z,3.10
2018-12-07T20:32:28.918Z,3.10
2018-12-07T20:35:01.536Z,3.10
2018-12-07T20:37:32.219Z,3.00
2018-12-07T20:40:02.179Z,3.10
2018-12-07T20:42:31.871Z,3.20
2018-12-07T20:45:03.044Z,3.20
2018-12-07T20:47:33.895Z,3.30
2018-12-07T20:50:04.047Z,3.20
2018-12-07T20:52:35.174Z,3.10
2018-12-07T20:55:05.057Z,3.10
2018-12-07T20:57:36.750Z,3.10
2018-12-07T21:00:09.106Z,3.10
2018-12-07T21:02:40.102Z,3.10
2018-12-07T21:05:48.313Z,3.10
2018-12-07T21:09:36.755Z,3.10
2018-12-07T21:12:24.408Z,3.10
2018-12-07T21:14:57.932Z,3.00
2018-12-07T21:17:36.695Z,3.00
2018-12-07T21:20:29.435Z,3.00
2018-12-07T21:23:00.999Z,3.00
2018-12-07T21:25:31.952Z,3.00
2018-12-07T21:28:04.006Z,3.00
2018-12-07T21:30:50.196Z,3.00
2018-12-07T21:33:41.647Z,3.00
2018-12-07T21:36:47.934Z,3.00
2018-12-07T21:39:50.844Z,3.00
2018-12-07T21:42:21.795Z,3.00
2018-12-07T21:44:51.866Z,3.00
2018-12-07T21:48:35.908Z,3.00
2018-12-07T21:51:20.363Z,3.00
2018-12-07T21:54:00.173Z,3.00
2018-12-07T21:56:31.728Z,2.90
2018-12-07T21:59:02.922Z,2.90
2018-12-07T22:01:32.875Z,3.00
2018-12-07T22:04:05.917Z,2.90
2018-12-07T22:06:36.070Z,3.00
2018-12-07T22:09:08.636Z,3.00
2018-12-07T22:11:39.717Z,3.00
2018-12-07T22:14:10.889Z,3.00
2018-12-07T22:16:47.921Z,3.00
2018-12-07T22:19:18.951Z,3.00
2018-12-07T22:21:49.777Z,3.00
2018-12-07T22:24:21.595Z,3.10
2018-12-07T22:26:52.865Z,3.10
2018-12-07T22:29:23.982Z,3.10
2018-12-07T22:31:54.055Z,3.10
2018-12-07T22:34:23.838Z,3.10
2018-12-07T22:36:56.348Z,3.10
2018-12-07T22:39:26.586Z,3.10
2018-12-07T22:41:59.082Z,3.20
2018-12-07T22:44:29.946Z,3.20
2018-12-07T22:47:01.006Z,3.20
2018-12-07T22:49:31.552Z,3.30
2018-12-07T22:52:05.299Z,3.30
2018-12-07T22:54:34.949Z,3.30
2018-12-07T22:57:06.880Z,3.30
2018-12-07T22:59:36.475Z,3.30
2018-12-07T23:02:06.258Z,3.30
2018-12-07T23:04:36.788Z,3.30
2018-12-07T23:07:07.475Z,3.40
2018-12-07T23:09:38.922Z,3.30
2018-12-07T23:12:11.199Z,3.40
2018-12-07T23:14:41.516Z,3.40
2018-12-07T23:17:12.951Z,3.40
2018-12-07T23:19:43.923Z,3.40
2018-12-07T23:22:15.855Z,3.40
2018-12-07T23:24:46.102Z,3.40
2018-12-07T23:27:16.871Z,3.40
2018-12-07T23:29:47.901Z,3.40
2018-12-07T23:32:20.614Z,3.40
2018-12-07T23:34:52.963Z,3.40
2018-12-07T23:37:25.150Z,3.40
2018-12-07T23:39:55.700Z,3.40
2018-12-07T23:42:25.951Z,3.50
2018-12-07T23:44:56.860Z,3.50
2018-12-07T23:47:28.326Z,3.50
2018-12-07T23:50:00.770Z,3.50
2018-12-07T23:52:30.621Z,3.50
2018-12-07T23:55:02.814Z,3.50
2018-12-07T23:57:33.879Z,3.50
